Saint Helena, CA

7:17 AM PST on December 11, 2016 (GMT -0800)
| | Change Station

Elev -9999 ft 0.00 °N, 0.00 °E | Updated 7 minutes ago

Partly Cloudy
Partly Cloudy
56 °F
Feels Like 56 °F
N
4
Wind Variable Wind from SW
Gusts mph

Today
High -- | Low -- °F
--% Chance of Precip.
Yesterday
High -- | Low -- °F
Precip. -- in
Pressure 30.16 in
Visibility 0.5 miles
Clouds
Dew Point 51 °F
Humidity 83%
Rainfall --
Snow Depth Not available.
7:17 AM 4:49 PM
Waxing Gibbous, 92% visible
METAR KSTS 111453Z 00000KT 1/2SM FG VV001 02/02 A3017 RMK AO2 SLP212 T00220022 53005 $
Pressure 30.16 in
Visibility 0.5 miles
Clouds
Dew Point 51 °F
Humidity 83%
Rainfall --
Snow Depth Not available.
7:17 AM 4:49 PM
Waxing Gibbous, 92% visible
METAR KSTS 111453Z 00000KT 1/2SM FG VV001 02/02 A3017 RMK AO2 SLP212 T00220022 53005 $

10-Day Weather Forecast

Almanac

Astronomy

Dec. 11, 2016 Rise Set
Actual Time
Civil Twilight
Nautical Twilight
Astronomical Twilight
Moon
Length of Visible Light
Length of Day
Tomorrow will be .
, % of the Moon is Illuminated

Today's Extremes

State Highs State Lows

Community

WunderPhotos

Upload Photos

1,956,725 photos uploaded!

WunderBlog® & News

Nearby

Air Quality

  Air Quality AQ Index Pollutant
Not available.

Snow Depth

Station Depth Elevation

Earthquake Activity

City Distance Mag. Time & Date
Minimum magnitude displayed is 2.5.

Coastal Water Temperatures

Place Temperature

Stations

Nearby Weather Stations

Station Location Temp. Windchill Dew Point Humidity Wind Precip. Elev Updated Type
                   

Watches & Warnings

There are currently no watches in effect.